sensor_id;sensor_type;location;lat;lon;timestamp;pressure;altitude;pressure_sealevel;temperature;humidity
66857;BME280;53766;50.280;19.160;2022-07-22T00:01:10;98522.78;;;29.24;32.65
66857;BME280;53766;50.280;19.160;2022-07-22T00:03:38;98513.31;;;29.27;32.47
66857;BME280;53766;50.280;19.160;2022-07-22T00:06:06;98502.47;;;29.27;32.72
66857;BME280;53766;50.280;19.160;2022-07-22T00:08:34;98498.66;;;29.28;32.35
66857;BME280;53766;50.280;19.160;2022-07-22T00:11:02;98494.34;;;29.27;32.78
66857;BME280;53766;50.280;19.160;2022-07-22T00:13:30;98496.22;;;29.26;32.79
66857;BME280;53766;50.280;19.160;2022-07-22T00:15:58;98502.72;;;29.25;32.64
66857;BME280;53766;50.280;19.160;2022-07-22T00:18:25;98516.56;;;29.24;32.98
66857;BME280;53766;50.280;19.160;2022-07-22T00:20:53;98521.44;;;29.22;32.99
66857;BME280;53766;50.280;19.160;2022-07-22T00:23:20;98525.25;;;29.21;32.96
66857;BME280;53766;50.280;19.160;2022-07-22T00:25:48;98524.44;;;29.20;33.05
66857;BME280;53766;50.280;19.160;2022-07-22T00:28:15;98523.63;;;29.20;33.05
66857;BME280;53766;50.280;19.160;2022-07-22T00:30:43;98527.44;;;29.19;33.17
66857;BME280;53766;50.280;19.160;2022-07-22T00:33:11;98532.84;;;29.19;33.12
66857;BME280;53766;50.280;19.160;2022-07-22T00:35:39;98540.44;;;29.17;33.25
66857;BME280;53766;50.280;19.160;2022-07-22T00:38:09;98534.22;;;29.16;32.98
66857;BME280;53766;50.280;19.160;2022-07-22T00:40:37;98540.44;;;29.17;32.94
66857;BME280;53766;50.280;19.160;2022-07-22T00:43:04;98547.22;;;29.14;33.00
66857;BME280;53766;50.280;19.160;2022-07-22T00:45:32;98532.31;;;29.11;32.94
66857;BME280;53766;50.280;19.160;2022-07-22T00:48:00;98530.13;;;29.13;33.10
66857;BME280;53766;50.280;19.160;2022-07-22T00:50:27;98533.94;;;29.12;33.07
66857;BME280;53766;50.280;19.160;2022-07-22T00:52:55;98529.31;;;29.13;32.91
66857;BME280;53766;50.280;19.160;2022-07-22T00:55:24;98531.75;;;29.15;33.05
66857;BME280;53766;50.280;19.160;2022-07-22T00:57:51;98526.34;;;29.15;33.47
66857;BME280;53766;50.280;19.160;2022-07-22T01:00:21;98524.69;;;29.13;33.15
66857;BME280;53766;50.280;19.160;2022-07-22T01:02:49;98521.47;;;29.11;33.28
66857;BME280;53766;50.280;19.160;2022-07-22T01:05:16;98541.53;;;29.10;33.50
66857;BME280;53766;50.280;19.160;2022-07-22T01:07:45;98541.53;;;29.10;33.19
66857;BME280;53766;50.280;19.160;2022-07-22T01:10:13;98532.31;;;29.11;33.01
66857;BME280;53766;50.280;19.160;2022-07-22T01:12:41;98526.91;;;29.11;33.21
66857;BME280;53766;50.280;19.160;2022-07-22T01:15:09;98532.31;;;29.11;33.56
66857;BME280;53766;50.280;19.160;2022-07-22T01:17:37;98535.03;;;29.11;33.53
66857;BME280;53766;50.280;19.160;2022-07-22T01:20:07;98541.25;;;29.12;33.26
66857;BME280;53766;50.280;19.160;2022-07-22T01:22:34;98537.22;;;29.09;33.27
66857;BME280;53766;50.280;19.160;2022-07-22T01:25:02;98535.03;;;29.11;33.40
66857;BME280;53766;50.280;19.160;2022-07-22T01:27:30;98536.09;;;29.10;33.54
66857;BME280;53766;50.280;19.160;2022-07-22T01:29:58;98524.44;;;29.10;33.47
66857;BME280;53766;50.280;19.160;2022-07-22T01:32:26;98530.69;;;29.10;33.26
66857;BME280;53766;50.280;19.160;2022-07-22T01:34:54;98527.97;;;29.10;33.30
66857;BME280;53766;50.280;19.160;2022-07-22T01:37:22;98524.44;;;29.10;33.72
66857;BME280;53766;50.280;19.160;2022-07-22T01:39:50;98528.78;;;29.11;33.51
66857;BME280;53766;50.280;19.160;2022-07-22T01:42:18;98543.44;;;29.10;33.42
66857;BME280;53766;50.280;19.160;2022-07-22T01:44:46;98524.44;;;29.10;33.37
66857;BME280;53766;50.280;19.160;2022-07-22T01:47:13;98524.44;;;29.10;33.31
66857;BME280;53766;50.280;19.160;2022-07-22T01:49:41;98523.66;;;29.09;33.51
66857;BME280;53766;50.280;19.160;2022-07-22T01:52:08;98529.06;;;29.09;33.72
66857;BME280;53766;50.280;19.160;2022-07-22T01:54:36;98523.66;;;29.09;33.23
66857;BME280;53766;50.280;19.160;2022-07-22T01:57:03;98518.22;;;29.09;33.58
66857;BME280;53766;50.280;19.160;2022-07-22T01:59:31;98526.34;;;29.09;33.52
66857;BME280;53766;50.280;19.160;2022-07-22T02:01:59;98533.66;;;29.09;33.57
66857;BME280;53766;50.280;19.160;2022-07-22T02:04:26;98527.41;;;29.08;33.54
66857;BME280;53766;50.280;19.160;2022-07-22T02:06:54;98525.78;;;29.07;33.65
66857;BME280;53766;50.280;19.160;2022-07-22T02:09:21;98522.53;;;29.05;33.53
66857;BME280;53766;50.280;19.160;2022-07-22T02:11:49;98535.78;;;29.07;33.52
66857;BME280;53766;50.280;19.160;2022-07-22T02:14:16;98529.81;;;29.05;33.80
66857;BME280;53766;50.280;19.160;2022-07-22T02:16:44;98525.25;;;29.05;33.77
66857;BME280;53766;50.280;19.160;2022-07-22T02:19:11;98524.94;;;29.07;33.77
66857;BME280;53766;50.280;19.160;2022-07-22T02:21:39;98529.56;;;29.06;33.70
66857;BME280;53766;50.280;19.160;2022-07-22T02:24:07;98533.38;;;29.05;33.56
66857;BME280;53766;50.280;19.160;2022-07-22T02:26:34;98544.75;;;29.02;33.94
66857;BME280;53766;50.280;19.160;2022-07-22T02:29:02;98549.38;;;29.02;33.69
66857;BME280;53766;50.280;19.160;2022-07-22T02:31:30;98552.06;;;29.02;33.82
66857;BME280;53766;50.280;19.160;2022-07-22T02:33:58;98553.97;;;29.01;33.67
66857;BME280;53766;50.280;19.160;2022-07-22T02:36:26;98559.41;;;29.01;33.77
66857;BME280;53766;50.280;19.160;2022-07-22T02:38:55;98555.88;;;29.01;33.73
66857;BME280;53766;50.280;19.160;2022-07-22T02:41:23;98570.78;;;28.98;33.94
66857;BME280;53766;50.280;19.160;2022-07-22T02:43:51;98573.22;;;29.00;33.77
66857;BME280;53766;50.280;19.160;2022-07-22T02:46:22;98577.84;;;28.99;33.69
66857;BME280;53766;50.280;19.160;2022-07-22T02:48:50;98592.47;;;28.98;33.74
66857;BME280;53766;50.280;19.160;2022-07-22T02:51:18;98600.88;;;28.97;33.94
66857;BME280;53766;50.280;19.160;2022-07-22T02:53:47;98600.88;;;28.97;33.86
66857;BME280;53766;50.280;19.160;2022-07-22T02:56:14;98592.75;;;28.97;33.79
66857;BME280;53766;50.280;19.160;2022-07-22T02:58:42;98598.44;;;28.95;34.07
66857;BME280;53766;50.280;19.160;2022-07-22T03:01:10;98591.41;;;28.94;34.03
66857;BME280;53766;50.280;19.160;2022-07-22T03:03:38;98596.81;;;28.94;33.95
66857;BME280;53766;50.280;19.160;2022-07-22T03:06:06;98596.81;;;28.94;33.93
66857;BME280;53766;50.280;19.160;2022-07-22T03:08:34;98598.44;;;28.95;34.07
66857;BME280;53766;50.280;19.160;2022-07-22T03:11:02;98597.63;;;28.95;33.90
66857;BME280;53766;50.280;19.160;2022-07-22T03:13:29;98586.78;;;28.95;33.94
66857;BME280;53766;50.280;19.160;2022-07-22T03:15:58;98587.59;;;28.95;34.02
66857;BME280;53766;50.280;19.160;2022-07-22T03:18:25;98588.69;;;28.94;33.97
66857;BME280;53766;50.280;19.160;2022-07-22T03:20:53;98582.16;;;28.95;33.89
66857;BME280;53766;50.280;19.160;2022-07-22T03:23:20;98587.59;;;28.95;34.27
66857;BME280;53766;50.280;19.160;2022-07-22T03:25:49;98599.25;;;28.96;33.98
66857;BME280;53766;50.280;19.160;2022-07-22T03:28:16;98598.44;;;28.95;34.09
66857;BME280;53766;50.280;19.160;2022-07-22T03:30:44;98613.09;;;28.94;33.98
66857;BME280;53766;50.280;19.160;2022-07-22T03:33:12;98625.00;;;28.93;34.35
66857;BME280;53766;50.280;19.160;2022-07-22T03:35:39;98622.28;;;28.93;34.24
66857;BME280;53766;50.280;19.160;2022-07-22T03:38:07;98630.44;;;28.93;34.17
66857;BME280;53766;50.280;19.160;2022-07-22T03:40:34;98645.63;;;28.94;34.07
66857;BME280;53766;50.280;19.160;2022-07-22T03:43:02;98637.50;;;28.94;34.25
66857;BME280;53766;50.280;19.160;2022-07-22T03:45:30;98642.91;;;28.94;34.24
66857;BME280;53766;50.280;19.160;2022-07-22T03:47:57;98648.31;;;28.89;34.41
66857;BME280;53766;50.280;19.160;2022-07-22T03:50:25;98642.63;;;28.85;34.71
66857;BME280;53766;50.280;19.160;2022-07-22T03:52:53;98642.03;;;28.78;34.98
66857;BME280;53766;50.280;19.160;2022-07-22T03:55:20;98646.66;;;28.73;35.14
66857;BME280;53766;50.280;19.160;2022-07-22T03:57:48;98645.00;;;28.66;35.23
66857;BME280;53766;50.280;19.160;2022-07-22T04:00:16;98656.38;;;28.63;35.60
66857;BME280;53766;50.280;19.160;2022-07-22T04:02:43;98649.03;;;28.59;35.48
66857;BME280;53766;50.280;19.160;2022-07-22T04:05:11;98649.31;;;28.57;36.06
66857;BME280;53766;50.280;19.160;2022-07-22T04:07:39;98641.72;;;28.54;35.85
66857;BME280;53766;50.280;19.160;2022-07-22T04:10:07;98638.41;;;28.47;36.26
66857;BME280;53766;50.280;19.160;2022-07-22T04:12:36;98637.31;;;28.43;36.68
66857;BME280;53766;50.280;19.160;2022-07-22T04:15:05;98634.31;;;28.39;36.49
66857;BME280;53766;50.280;19.160;2022-07-22T04:17:33;98634.31;;;28.39;36.56
66857;BME280;53766;50.280;19.160;2022-07-22T04:20:01;98633.50;;;28.39;36.64
66857;BME280;53766;50.280;19.160;2022-07-22T04:22:28;98630.53;;;28.40;36.82
66857;BME280;53766;50.280;19.160;2022-07-22T04:24:56;98640.56;;;28.40;36.68
66857;BME280;53766;50.280;19.160;2022-07-22T04:27:23;98645.94;;;28.35;37.13
66857;BME280;53766;50.280;19.160;2022-07-22T04:29:51;98634.56;;;28.33;37.26
66857;BME280;53766;50.280;19.160;2022-07-22T04:32:18;98632.38;;;28.24;37.42
66857;BME280;53766;50.280;19.160;2022-07-22T04:34:46;98638.03;;;28.23;37.36
66857;BME280;53766;50.280;19.160;2022-07-22T04:37:14;98633.97;;;28.20;37.47
66857;BME280;53766;50.280;19.160;2022-07-22T04:39:41;98628.00;;;28.18;37.70
66857;BME280;53766;50.280;19.160;2022-07-22T04:42:09;98626.66;;;28.16;37.68
66857;BME280;53766;50.280;19.160;2022-07-22T04:44:36;98632.31;;;28.14;37.72
66857;BME280;53766;50.280;19.160;2022-07-22T04:47:04;98635.03;;;28.14;37.84
66857;BME280;53766;50.280;19.160;2022-07-22T04:49:35;98640.19;;;28.16;38.03
66857;BME280;53766;50.280;19.160;2022-07-22T04:52:03;98640.94;;;28.11;38.11
66857;BME280;53766;50.280;19.160;2022-07-22T04:54:31;98644.44;;;28.06;38.20
66857;BME280;53766;50.280;19.160;2022-07-22T04:56:59;98639.59;;;28.08;38.16
66857;BME280;53766;50.280;19.160;2022-07-22T04:59:26;98633.91;;;28.05;38.31
66857;BME280;53766;50.280;19.160;2022-07-22T05:01:54;98653.63;;;28.00;38.42
66857;BME280;53766;50.280;19.160;2022-07-22T05:04:21;98650.09;;;27.95;38.67
66857;BME280;53766;50.280;19.160;2022-07-22T05:06:49;98654.13;;;27.92;38.68
66857;BME280;53766;50.280;19.160;2022-07-22T05:09:16;98644.09;;;27.87;38.49
66857;BME280;53766;50.280;19.160;2022-07-22T05:11:44;98643.00;;;27.88;38.68
66857;BME280;53766;50.280;19.160;2022-07-22T05:14:12;98632.44;;;27.87;38.75
66857;BME280;53766;50.280;19.160;2022-07-22T05:16:39;98640.59;;;27.92;38.60
66857;BME280;53766;50.280;19.160;2022-07-22T05:19:07;98644.69;;;28.00;38.43
66857;BME280;53766;50.280;19.160;2022-07-22T05:21:34;98646.34;;;28.06;38.10
66857;BME280;53766;50.280;19.160;2022-07-22T05:24:02;98638.84;;;28.18;37.87
66857;BME280;53766;50.280;19.160;2022-07-22T05:26:30;98644.28;;;28.28;37.36
66857;BME280;53766;50.280;19.160;2022-07-22T05:29:00;98643.22;;;28.35;37.97
66857;BME280;53766;50.280;19.160;2022-07-22T05:31:28;98636.75;;;28.41;37.72
66857;BME280;53766;50.280;19.160;2022-07-22T05:33:56;98629.47;;;28.46;37.65
66857;BME280;53766;50.280;19.160;2022-07-22T05:36:23;98631.97;;;28.53;37.56
66857;BME280;53766;50.280;19.160;2022-07-22T05:38:51;98629.81;;;28.55;37.73
66857;BME280;53766;50.280;19.160;2022-07-22T05:41:19;98637.91;;;28.50;37.92
66857;BME280;53766;50.280;19.160;2022-07-22T05:43:46;98625.94;;;28.41;38.08
66857;BME280;53766;50.280;19.160;2022-07-22T05:46:14;98629.44;;;28.36;38.11
66857;BME280;53766;50.280;19.160;2022-07-22T05:48:41;98622.13;;;28.37;38.11
66857;BME280;53766;50.280;19.160;2022-07-22T05:51:13;98612.38;;;28.36;38.15
66857;BME280;53766;50.280;19.160;2022-07-22T05:53:42;98619.16;;;28.38;38.21
66857;BME280;53766;50.280;19.160;2022-07-22T05:56:10;98615.09;;;28.41;37.86
66857;BME280;53766;50.280;19.160;2022-07-22T05:58:39;98621.31;;;28.41;38.00
66857;BME280;53766;50.280;19.160;2022-07-22T06:01:07;98628.63;;;28.46;37.81
66857;BME280;53766;50.280;19.160;2022-07-22T06:03:35;98630.78;;;28.44;37.69
66857;BME280;53766;50.280;19.160;2022-07-22T06:06:03;98629.19;;;28.43;38.31
66857;BME280;53766;50.280;19.160;2022-07-22T06:08:32;98621.59;;;28.40;38.22
66857;BME280;53766;50.280;19.160;2022-07-22T06:11:00;98627.28;;;28.38;38.04
66857;BME280;53766;50.280;19.160;2022-07-22T06:13:27;98633.50;;;28.39;37.96
66857;BME280;53766;50.280;19.160;2022-07-22T06:15:55;98630.28;;;28.42;37.70
66857;BME280;53766;50.280;19.160;2022-07-22T06:18:23;98633.00;;;28.47;37.65
66857;BME280;53766;50.280;19.160;2022-07-22T06:20:50;98632.75;;;28.48;37.70
66857;BME280;53766;50.280;19.160;2022-07-22T06:23:18;98631.94;;;28.48;38.09
66857;BME280;53766;50.280;19.160;2022-07-22T06:25:45;98622.50;;;28.56;37.80
66857;BME280;53766;50.280;19.160;2022-07-22T06:28:12;98625.44;;;28.54;37.82
66857;BME280;53766;50.280;19.160;2022-07-22T06:30:40;98616.78;;;28.52;38.07
66857;BME280;53766;50.280;19.160;2022-07-22T06:33:08;98608.09;;;28.50;38.02
66857;BME280;53766;50.280;19.160;2022-07-22T06:35:38;98604.84;;;28.48;38.09
66857;BME280;53766;50.280;19.160;2022-07-22T06:38:06;98605.13;;;28.51;38.06
66857;BME280;53766;50.280;19.160;2022-07-22T06:40:35;98614.63;;;28.54;38.31
66857;BME280;53766;50.280;19.160;2022-07-22T06:43:03;98619.22;;;28.54;38.08
66857;BME280;53766;50.280;19.160;2022-07-22T06:45:30;98614.63;;;28.49;38.53
66857;BME280;53766;50.280;19.160;2022-07-22T06:47:58;98613.50;;;28.50;38.48
66857;BME280;53766;50.280;19.160;2022-07-22T06:50:26;98610.25;;;28.48;38.78
66857;BME280;53766;50.280;19.160;2022-07-22T06:52:55;98621.59;;;28.45;38.61
66857;BME280;53766;50.280;19.160;2022-07-22T06:55:23;98628.38;;;28.42;38.97
66857;BME280;53766;50.280;19.160;2022-07-22T06:57:50;98631.88;;;28.38;38.90
66857;BME280;53766;50.280;19.160;2022-07-22T07:00:18;98626.97;;;28.35;39.31
66857;BME280;53766;50.280;19.160;2022-07-22T07:02:46;98628.63;;;28.36;39.05
66857;BME280;53766;50.280;19.160;2022-07-22T07:05:14;98638.91;;;28.39;38.97
66857;BME280;53766;50.280;19.160;2022-07-22T07:07:48;98658.69;;;28.39;38.90
66857;BME280;53766;50.280;19.160;2022-07-22T07:10:15;98658.44;;;28.41;39.01
66857;BME280;53766;50.280;19.160;2022-07-22T07:12:43;98649.25;;;28.42;39.36
66857;BME280;53766;50.280;19.160;2022-07-22T07:15:11;98650.84;;;28.43;39.08
66857;BME280;53766;50.280;19.160;2022-07-22T07:17:52;98644.41;;;28.49;38.56
66857;BME280;53766;50.280;19.160;2022-07-22T07:20:20;98648.19;;;28.48;38.94
66857;BME280;53766;50.280;19.160;2022-07-22T07:22:48;98648.69;;;28.45;38.76
66857;BME280;53766;50.280;19.160;2022-07-22T07:25:16;98649.25;;;28.42;38.90
66857;BME280;53766;50.280;19.160;2022-07-22T07:27:50;98642.72;;;28.43;39.09
66857;BME280;53766;50.280;19.160;2022-07-22T07:30:21;98638.41;;;28.42;39.38
66857;BME280;53766;50.280;19.160;2022-07-22T07:32:49;98640.56;;;28.40;39.44
66857;BME280;53766;50.280;19.160;2022-07-22T07:35:17;98649.25;;;28.42;39.16
66857;BME280;53766;50.280;19.160;2022-07-22T07:37:45;98647.34;;;28.47;39.23
66857;BME280;53766;50.280;19.160;2022-07-22T07:40:13;98652.53;;;28.49;38.96
66857;BME280;53766;50.280;19.160;2022-07-22T07:42:41;98655.72;;;28.46;39.25
66857;BME280;53766;50.280;19.160;2022-07-22T07:45:14;98659.53;;;28.45;39.45
66857;BME280;53766;50.280;19.160;2022-07-22T07:47:42;98661.16;;;28.46;39.23
66857;BME280;53766;50.280;19.160;2022-07-22T07:50:10;98653.09;;;28.51;39.22
66857;BME280;53766;50.280;19.160;2022-07-22T07:52:44;98650.09;;;28.52;39.19
66857;BME280;53766;50.280;19.160;2022-07-22T07:55:19;98651.44;;;28.50;39.39
66857;BME280;53766;50.280;19.160;2022-07-22T07:57:48;98663.38;;;28.49;39.32
66857;BME280;53766;50.280;19.160;2022-07-22T08:00:20;98660.34;;;28.45;39.44
66857;BME280;53766;50.280;19.160;2022-07-22T08:02:49;98659.28;;;28.46;39.29
66857;BME280;53766;50.280;19.160;2022-07-22T08:05:17;98664.94;;;28.45;39.46
66857;BME280;53766;50.280;19.160;2022-07-22T08:07:48;98659.53;;;28.45;39.50
66857;BME280;53766;50.280;19.160;2022-07-22T08:10:17;98656.56;;;28.46;39.36
66857;BME280;53766;50.280;19.160;2022-07-22T08:13:04;98660.41;;;28.50;39.31
66857;BME280;53766;50.280;19.160;2022-07-22T08:15:35;98667.69;;;28.50;39.55
66857;BME280;53766;50.280;19.160;2022-07-22T08:18:04;98660.13;;;28.52;39.51
66857;BME280;53766;50.280;19.160;2022-07-22T08:20:32;98664.72;;;28.51;39.72
66857;BME280;53766;50.280;19.160;2022-07-22T08:22:59;98660.94;;;28.52;39.61
66857;BME280;53766;50.280;19.160;2022-07-22T08:25:27;98656.88;;;28.50;39.72
66857;BME280;53766;50.280;19.160;2022-07-22T08:27:56;98664.44;;;28.48;39.80
66857;BME280;53766;50.280;19.160;2022-07-22T08:30:24;98660.09;;;28.47;39.82
66857;BME280;53766;50.280;19.160;2022-07-22T08:32:54;98656.31;;;28.48;39.86
66857;BME280;53766;50.280;19.160;2022-07-22T08:35:22;98674.44;;;28.47;39.83
66857;BME280;53766;50.280;19.160;2022-07-22T08:37:50;98667.69;;;28.50;40.03
66857;BME280;53766;50.280;19.160;2022-07-22T08:40:18;98662.78;;;28.47;40.08
66857;BME280;53766;50.280;19.160;2022-07-22T08:42:47;98660.66;;;28.49;39.73
66857;BME280;53766;50.280;19.160;2022-07-22T08:45:16;98662.28;;;28.50;39.56
66857;BME280;53766;50.280;19.160;2022-07-22T08:47:46;98668.00;;;28.54;39.51
66857;BME280;53766;50.280;19.160;2022-07-22T08:50:15;98663.13;;;28.50;39.85
66857;BME280;53766;50.280;19.160;2022-07-22T08:52:43;98670.16;;;28.51;40.06
66857;BME280;53766;50.280;19.160;2022-07-22T08:55:11;98663.94;;;28.56;39.95
66857;BME280;53766;50.280;19.160;2022-07-22T08:57:46;98665.59;;;28.57;39.83
66857;BME280;53766;50.280;19.160;2022-07-22T09:00:17;98665.03;;;28.60;39.83
66857;BME280;53766;50.280;19.160;2022-07-22T09:02:45;98671.00;;;28.67;39.68
66857;BME280;53766;50.280;19.160;2022-07-22T09:05:15;98665.09;;;28.76;39.58
66857;BME280;53766;50.280;19.160;2022-07-22T09:08:03;98666.47;;;28.83;39.20
66857;BME280;53766;50.280;19.160;2022-07-22T09:10:32;98669.97;;;28.79;39.03
66857;BME280;53766;50.280;19.160;2022-07-22T09:13:03;98669.97;;;28.79;39.24
66857;BME280;53766;50.280;19.160;2022-07-22T09:15:37;98670.78;;;28.79;39.46
66857;BME280;53766;50.280;19.160;2022-07-22T09:18:06;98668.91;;;28.85;39.38
66857;BME280;53766;50.280;19.160;2022-07-22T09:20:35;98666.47;;;28.88;39.21
66857;BME280;53766;50.280;19.160;2022-07-22T09:23:15;98665.13;;;28.86;39.48
66857;BME280;53766;50.280;19.160;2022-07-22T09:25:45;98661.31;;;28.87;39.45
66857;BME280;53766;50.280;19.160;2022-07-22T09:28:19;98656.44;;;28.89;39.06
66857;BME280;53766;50.280;19.160;2022-07-22T09:30:52;98662.69;;;28.95;39.24
66857;BME280;53766;50.280;19.160;2022-07-22T09:33:22;98665.13;;;28.96;39.33
66857;BME280;53766;50.280;19.160;2022-07-22T09:35:51;98665.13;;;28.96;39.30
66857;BME280;53766;50.280;19.160;2022-07-22T09:38:26;98665.97;;;28.97;39.25
66857;BME280;53766;50.280;19.160;2022-07-22T09:40:55;98662.41;;;28.96;39.53
66857;BME280;53766;50.280;19.160;2022-07-22T09:43:23;98663.50;;;29.00;39.11
66857;BME280;53766;50.280;19.160;2022-07-22T09:45:53;98669.47;;;28.97;39.03
66857;BME280;53766;50.280;19.160;2022-07-22T09:48:21;98660.78;;;29.00;39.40
66857;BME280;53766;50.280;19.160;2022-07-22T09:50:51;98660.81;;;29.05;39.08
66857;BME280;53766;50.280;19.160;2022-07-22T09:53:20;98667.59;;;29.08;38.90
66857;BME280;53766;50.280;19.160;2022-07-22T09:55:49;98668.41;;;29.08;38.98
66857;BME280;53766;50.280;19.160;2022-07-22T09:58:17;98659.19;;;29.04;39.17
66857;BME280;53766;50.280;19.160;2022-07-22T10:00:46;98663.53;;;29.05;39.07
66857;BME280;53766;50.280;19.160;2022-07-22T10:03:23;98664.06;;;29.07;38.93
66857;BME280;53766;50.280;19.160;2022-07-22T10:05:54;98658.13;;;29.10;38.79
66857;BME280;53766;50.280;19.160;2022-07-22T10:08:24;98659.22;;;29.09;38.48
66857;BME280;53766;50.280;19.160;2022-07-22T10:10:53;98661.94;;;29.09;38.69
66857;BME280;53766;50.280;19.160;2022-07-22T10:13:21;98660.84;;;29.10;38.63
66857;BME280;53766;50.280;19.160;2022-07-22T10:15:49;98661.13;;;29.14;38.75
66857;BME280;53766;50.280;19.160;2022-07-22T10:18:18;98654.06;;;29.13;38.66
66857;BME280;53766;50.280;19.160;2022-07-22T10:20:46;98645.66;;;29.20;38.80
66857;BME280;53766;50.280;19.160;2022-07-22T10:23:15;98651.09;;;29.25;38.38
66857;BME280;53766;50.280;19.160;2022-07-22T10:28:28;98643.50;;;29.27;38.67
66857;BME280;53766;50.280;19.160;2022-07-22T10:31:23;98645.13;;;29.23;38.28
66857;BME280;53766;50.280;19.160;2022-07-22T10:33:55;98640.50;;;29.28;38.43
66857;BME280;53766;50.280;19.160;2022-07-22T10:36:36;98642.97;;;29.30;38.33
66857;BME280;53766;50.280;19.160;2022-07-22T10:39:12;98637.81;;;29.33;38.19
66857;BME280;53766;50.280;19.160;2022-07-22T10:41:42;98631.03;;;29.36;38.48
66857;BME280;53766;50.280;19.160;2022-07-22T10:44:47;98636.44;;;29.41;38.32
66857;BME280;53766;50.280;19.160;2022-07-22T10:47:56;98638.06;;;29.37;38.17
66857;BME280;53766;50.280;19.160;2022-07-22T10:56:00;98632.63;;;29.37;38.07
66857;BME280;53766;50.280;19.160;2022-07-22T11:01:05;98623.44;;;29.38;37.89
66857;BME280;53766;50.280;19.160;2022-07-22T11:03:33;98629.66;;;29.39;38.11
66857;BME280;53766;50.280;19.160;2022-07-22T11:06:21;98627.22;;;29.37;37.69
66857;BME280;53766;50.280;19.160;2022-07-22T11:08:55;98630.47;;;29.39;37.93
66857;BME280;53766;50.280;19.160;2022-07-22T11:14:02;98625.06;;;29.34;36.68
66857;BME280;53766;50.280;19.160;2022-07-22T11:16:29;98625.59;;;29.31;36.58
66857;BME280;53766;50.280;19.160;2022-07-22T11:19:00;98621.25;;;29.30;36.61
66857;BME280;53766;50.280;19.160;2022-07-22T11:21:30;98610.13;;;29.26;36.21
66857;BME280;53766;50.280;19.160;2022-07-22T11:24:00;98608.25;;;29.27;36.47
66857;BME280;53766;50.280;19.160;2022-07-22T11:26:40;98609.31;;;29.31;36.97
66857;BME280;53766;50.280;19.160;2022-07-22T11:29:08;98617.72;;;29.35;36.99
66857;BME280;53766;50.280;19.160;2022-07-22T11:31:37;98608.78;;;29.39;36.87
66857;BME280;53766;50.280;19.160;2022-07-22T11:34:11;98613.94;;;29.41;37.18
66857;BME280;53766;50.280;19.160;2022-07-22T11:36:44;98617.44;;;29.41;36.89
66857;BME280;53766;50.280;19.160;2022-07-22T11:39:13;98612.03;;;29.41;36.99
66857;BME280;53766;50.280;19.160;2022-07-22T11:41:41;98612.28;;;29.40;36.63
66857;BME280;53766;50.280;19.160;2022-07-22T11:44:09;98605.25;;;29.39;36.72
66857;BME280;53766;50.280;19.160;2022-07-22T11:46:41;98605.00;;;29.40;36.62
66857;BME280;53766;50.280;19.160;2022-07-22T11:49:13;98595.75;;;29.41;36.96
66857;BME280;53766;50.280;19.160;2022-07-22T11:51:41;98599.00;;;29.48;36.80
66857;BME280;53766;50.280;19.160;2022-07-22T11:54:08;98602.25;;;29.56;36.92
66857;BME280;53766;50.280;19.160;2022-07-22T11:56:36;98594.09;;;29.61;36.62
66857;BME280;53766;50.280;19.160;2022-07-22T11:59:05;98593.56;;;29.64;36.67
66857;BME280;53766;50.280;19.160;2022-07-22T12:01:35;98592.47;;;29.70;36.97
66857;BME280;53766;50.280;19.160;2022-07-22T12:04:09;98595.19;;;29.70;36.89
66857;BME280;53766;50.280;19.160;2022-07-22T12:06:39;98594.06;;;29.66;36.57
66857;BME280;53766;50.280;19.160;2022-07-22T12:09:24;98592.47;;;29.65;35.98
66857;BME280;53766;50.280;19.160;2022-07-22T12:11:54;98580.50;;;29.66;36.15
66857;BME280;53766;50.280;19.160;2022-07-22T12:14:24;98587.03;;;29.70;36.13
66857;BME280;53766;50.280;19.160;2022-07-22T12:19:25;98579.16;;;29.79;36.17
66857;BME280;53766;50.280;19.160;2022-07-22T12:22:05;98574.00;;;29.77;35.90
66857;BME280;53766;50.280;19.160;2022-07-22T12:27:07;98570.75;;;29.80;36.02
66857;BME280;53766;50.280;19.160;2022-07-22T12:32:29;98561.50;;;29.86;36.13
66857;BME280;53766;50.280;19.160;2022-07-22T12:35:02;98552.78;;;29.89;36.13
66857;BME280;53766;50.280;19.160;2022-07-22T12:37:34;98559.81;;;29.96;36.06
66857;BME280;53766;50.280;19.160;2022-07-22T12:40:09;98553.84;;;29.93;36.01
66857;BME280;53766;50.280;19.160;2022-07-22T12:42:41;98554.97;;;29.92;36.25
66857;BME280;53766;50.280;19.160;2022-07-22T12:45:14;98550.06;;;29.94;36.34
66857;BME280;53766;50.280;19.160;2022-07-22T12:50:32;98540.81;;;29.96;36.28
66857;BME280;53766;50.280;19.160;2022-07-22T12:53:15;98545.72;;;29.99;36.58
66857;BME280;53766;50.280;19.160;2022-07-22T12:55:49;98545.72;;;29.99;36.11
66857;BME280;53766;50.280;19.160;2022-07-22T12:58:19;98538.06;;;30.01;36.26
66857;BME280;53766;50.280;19.160;2022-07-22T13:00:53;98531.03;;;30.00;36.22
66857;BME280;53766;50.280;19.160;2022-07-22T13:03:22;98532.13;;;29.99;35.82
66857;BME280;53766;50.280;19.160;2022-07-22T13:05:58;98537.53;;;30.04;36.08
66857;BME280;53766;50.280;19.160;2022-07-22T13:08:28;98527.19;;;30.01;36.14
66857;BME280;53766;50.280;19.160;2022-07-22T13:11:11;98528.84;;;30.02;36.27
66857;BME280;53766;50.280;19.160;2022-07-22T13:13:38;98531.00;;;30.05;35.96
66857;BME280;53766;50.280;19.160;2022-07-22T13:16:07;98528.56;;;30.03;36.33
66857;BME280;53766;50.280;19.160;2022-07-22T13:18:34;98521.50;;;30.07;36.25
66857;BME280;53766;50.280;19.160;2022-07-22T13:21:02;98513.06;;;30.09;36.10
66857;BME280;53766;50.280;19.160;2022-07-22T13:23:29;98519.59;;;30.08;36.14
66857;BME280;53766;50.280;19.160;2022-07-22T13:25:57;98513.06;;;30.09;35.87